.
WxDataArchive / Data Records for 2013-07-27
2013-07-26 July 2013 2013-07-28

Data Records for Saturday, 27 July 2013

Time	Temp	Chill	HIndex	Humid	Dewpt	 Wind 	HiWind	WindDir	Rain 	Barom 
-----	----	-----	------	-----	-----	------	------	-------	-----	----- 
00:00	69.4	69.4	69.4	76	61.5	1	3	270	0.00	29.905 
00:05	68.8	68.8	68.8	78	61.7	0	1	270	0.01	29.905 
00:10	68.3	68.3	68.3	81	62.2	0	1	270	0.00	29.905 
00:15	67.8	67.8	67.8	82	62.1	0	1	270	0.00	29.903 
00:20	67.4	67.4	67.4	83	62.0	0	0	---	0.00	29.903 
00:25	67.1	67.1	67.1	84	62.1	0	0	---	0.00	29.903 
00:30	66.9	66.9	66.9	85	62.2	0	0	---	0.00	29.900 
00:35	66.8	66.8	66.8	86	62.5	0	0	---	0.00	29.900 
00:40	66.8	66.8	66.8	86	62.5	0	0	---	0.00	29.900 
00:45	66.6	66.6	66.6	86	62.3	0	0	---	0.00	29.896 
00:50	66.6	66.6	66.6	87	62.6	0	0	---	0.00	29.896 
00:55	66.6	66.6	66.6	87	62.6	0	0	---	0.00	29.896 
01:00	66.6	66.6	66.6	87	62.6	0	0	---	0.00	29.895 
01:05	66.6	66.6	66.6	87	62.6	0	0	---	0.00	29.895 
01:10	66.6	66.6	66.6	87	62.6	0	1	270	0.00	29.895 
01:15	66.6	66.6	66.6	87	62.6	0	1	270	0.00	29.891 
01:20	66.6	66.6	66.6	88	62.9	0	0	---	0.00	29.891 
01:25	66.6	66.6	66.6	88	62.9	0	0	---	0.00	29.891 
01:30	66.6	66.6	66.6	88	62.9	0	1	270	0.00	29.890 
01:35	66.6	66.6	66.6	88	62.9	0	1	270	0.00	29.890 
01:40	66.6	66.6	66.6	88	62.9	0	1	270	0.00	29.890 
01:45	66.6	66.6	66.6	88	62.9	0	0	---	0.00	29.884 
01:50	66.6	66.6	66.6	88	62.9	0	1	270	0.00	29.884 
01:55	66.4	66.4	66.4	88	62.7	0	1	270	0.00	29.884 
02:00	66.4	66.4	66.4	88	62.7	0	0	---	0.00	29.875 
02:05	66.4	66.4	66.4	88	62.7	0	0	---	0.00	29.875 
02:10	66.4	66.4	66.4	88	62.7	0	0	---	0.00	29.875 
02:15	66.3	66.3	66.3	88	62.6	0	0	---	0.00	29.870 
02:20	66.3	66.3	66.3	88	62.6	0	0	---	0.00	29.870 
02:25	66.3	66.3	66.3	88	62.6	0	0	---	0.00	29.870 
02:30	66.3	66.3	66.3	88	62.6	0	1	270	0.00	29.863 
02:35	66.3	66.3	66.3	88	62.6	0	0	---	0.00	29.863 
02:40	66.3	66.3	66.3	88	62.6	0	1	270	0.00	29.863 
02:45	66.3	66.3	66.3	88	62.6	0	0	---	0.00	29.860 
02:50	66.4	66.4	66.4	88	62.7	0	1	270	0.00	29.860 
02:55	66.4	66.4	66.4	87	62.4	0	2	270	0.00	29.860 
03:00	66.4	66.4	66.4	87	62.4	0	1	270	0.00	29.858 
03:05	66.4	66.4	66.4	87	62.4	0	1	270	0.00	29.858 
03:10	66.4	66.4	66.4	87	62.4	0	1	270	0.00	29.858 
03:15	66.6	66.6	66.6	86	62.3	0	1	270	0.00	29.858 
03:20	66.6	66.6	66.6	86	62.3	0	1	270	0.00	29.858 
03:25	66.6	66.6	66.6	85	61.9	0	2	270	0.00	29.858 
03:30	66.8	66.8	66.8	85	62.1	0	1	270	0.00	29.855 
03:35	66.8	66.8	66.8	85	62.1	0	1	270	0.00	29.855 
03:40	66.8	66.8	66.8	85	62.1	0	1	270	0.00	29.855 
03:45	66.8	66.8	66.8	85	62.1	0	1	270	0.00	29.853 
03:50	66.8	66.8	66.8	85	62.1	0	1	270	0.00	29.853 
03:55	66.8	66.8	66.8	85	62.1	0	1	270	0.00	29.853 
04:00	66.8	66.8	66.8	85	62.1	0	1	270	0.00	29.849 
04:05	66.8	66.8	66.8	85	62.1	0	1	270	0.00	29.849 
04:10	66.9	66.9	66.9	85	62.2	0	2	270	0.00	29.849 
04:15	66.9	66.9	66.9	85	62.2	0	1	270	0.00	29.845 
04:20	66.9	66.9	66.9	85	62.2	0	1	270	0.00	29.845 
04:25	66.9	66.9	66.9	85	62.2	0	1	270	0.00	29.845 
04:30	66.9	66.9	66.9	85	62.2	0	0	---	0.00	29.843 
04:35	66.8	66.8	66.8	85	62.1	0	1	270	0.00	29.843 
04:40	66.8	66.8	66.8	85	62.1	0	1	270	0.00	29.843 
04:45	66.8	66.8	66.8	85	62.1	0	1	270	0.00	29.841 
04:50	66.8	66.8	66.8	85	62.1	0	1	270	0.00	29.841 
04:55	66.8	66.8	66.8	85	62.1	0	1	270	0.00	29.841 
05:00	66.8	66.8	66.8	85	62.1	0	1	270	0.00	29.841 
05:05	66.8	66.8	66.8	85	62.1	0	1	270	0.00	29.841 
05:10	66.6	66.6	66.6	86	62.3	0	1	270	0.00	29.841 
05:15	66.6	66.6	66.6	86	62.3	0	1	270	0.00	29.841 
05:20	66.6	66.6	66.6	86	62.3	0	1	270	0.00	29.841 
05:25	66.6	66.6	66.6	86	62.3	0	1	270	0.00	29.841 
05:30	66.6	66.6	66.6	87	62.6	0	1	270	0.00	29.840 
05:35	66.6	66.6	66.6	87	62.6	0	1	270	0.00	29.840 
05:40	66.4	66.4	66.4	87	62.4	0	2	270	0.00	29.840 
05:45	66.4	66.4	66.4	87	62.4	0	1	270	0.00	29.836 
05:50	66.4	66.4	66.4	87	62.4	0	1	270	0.00	29.836 
05:55	66.4	66.4	66.4	87	62.4	0	1	270	0.00	29.836 
06:00	66.4	66.4	66.4	87	62.4	0	1	270	0.00	29.831 
06:05	66.4	66.4	66.4	88	62.7	0	1	270	0.00	29.831 
06:10	66.4	66.4	66.4	88	62.7	0	1	270	0.00	29.831 
06:15	66.4	66.4	66.4	88	62.7	0	0	---	0.00	29.828 
06:20	66.4	66.4	66.4	88	62.7	0	1	270	0.00	29.828 
06:25	66.4	66.4	66.4	88	62.7	0	1	270	0.00	29.828 
06:30	66.4	66.4	66.4	88	62.7	0	0	---	0.00	29.834 
06:35	66.4	66.4	66.4	88	62.7	0	1	270	0.00	29.834 
06:40	66.4	66.4	66.4	88	62.7	0	1	270	0.00	29.834 
06:45	66.4	66.4	66.4	88	62.7	0	0	---	0.00	29.840 
06:50	66.4	66.4	66.4	88	62.7	0	1	270	0.00	29.840 
06:55	66.4	66.4	66.4	89	63.1	0	1	270	0.00	29.840 
07:00	66.4	66.4	66.4	89	63.1	0	1	270	0.00	29.841 
07:05	66.6	66.6	66.6	89	63.3	0	0	---	0.00	29.841 
07:10	66.6	66.6	66.6	89	63.3	0	1	270	0.00	29.841 
07:15	66.6	66.6	66.6	89	63.3	0	0	---	0.00	29.840 
07:20	66.6	66.6	66.6	89	63.3	0	0	---	0.00	29.840 
07:25	66.6	66.6	66.6	89	63.3	0	1	270	0.00	29.840 
07:30	66.6	66.6	66.6	89	63.3	0	1	270	0.00	29.840 
07:35	66.8	66.8	66.8	89	63.4	0	1	270	0.00	29.840 
07:40	66.8	66.8	66.8	89	63.4	0	1	270	0.00	29.840 
07:45	66.8	66.8	66.8	89	63.4	0	0	---	0.00	29.837 
07:50	66.9	66.9	66.9	90	63.9	0	1	270	0.00	29.837 
07:55	66.9	66.9	66.9	89	63.5	0	0	---	0.00	29.837 
08:00	66.9	66.9	66.9	90	63.9	0	0	---	0.00	29.832 
08:05	67.1	67.1	67.1	90	64.1	0	0	---	0.00	29.832 
08:10	67.3	67.3	67.3	90	64.3	0	1	270	0.00	29.832 
08:15	67.3	67.3	67.3	89	63.9	0	1	270	0.00	29.835 
08:20	67.3	67.3	67.3	90	64.3	0	1	270	0.00	29.835 
08:25	67.3	67.3	67.3	90	64.3	0	2	270	0.00	29.835 
08:30	67.4	67.4	67.4	90	64.4	0	1	270	0.00	29.829 
08:35	67.4	67.4	67.4	90	64.4	0	1	270	0.00	29.829 
08:40	67.4	67.4	67.4	90	64.4	0	0	---	0.00	29.829 
08:45	67.6	67.6	67.6	90	64.6	0	1	270	0.00	29.829 
08:50	67.6	67.6	67.6	89	64.2	0	1	270	0.00	29.829 
08:55	67.8	67.8	67.8	89	64.4	0	1	270	0.00	29.829 
09:00	67.8	67.8	67.8	89	64.4	0	1	270	0.00	29.830 
09:05	67.8	67.8	67.8	89	64.4	0	1	270	0.00	29.830 
09:10	67.9	67.9	67.9	89	64.5	0	2	270	0.00	29.830 
09:15	67.9	67.9	67.9	89	64.5	0	1	270	0.00	29.827 
09:20	68.1	68.1	68.1	89	64.7	0	1	270	0.00	29.827 
09:25	68.3	68.3	68.3	89	64.9	0	0	---	0.00	29.827 
09:30	68.3	68.3	68.3	88	64.6	0	0	---	0.00	29.826 
09:35	68.3	68.3	68.3	89	64.9	0	1	270	0.00	29.826 
09:40	68.6	68.6	68.6	89	65.2	0	1	270	0.00	29.826 
09:45	68.8	68.8	68.8	88	65.1	0	1	270	0.00	29.823 
09:50	68.9	68.9	68.9	88	65.2	0	1	270	0.00	29.823 
09:55	69.1	69.1	69.1	87	65.1	0	1	270	0.00	29.823 
10:00	69.4	69.4	69.4	87	65.4	0	2	270	0.00	29.819 
10:05	69.6	69.6	69.6	86	65.2	1	2	270	0.00	29.819 
10:10	69.9	69.9	69.9	85	65.2	0	1	270	0.00	29.819 
10:15	70.6	70.6	70.6	85	65.9	0	2	270	0.00	29.812 
10:20	71.3	71.3	71.3	82	65.5	0	3	270	0.00	29.812 
10:25	71.6	71.6	71.6	81	65.4	0	1	338	0.00	29.812 
10:30	71.6	71.6	71.6	80	65.1	1	3	315	0.00	29.808 
10:35	71.6	71.6	71.6	80	65.1	0	3	315	0.00	29.808 
10:40	71.8	71.8	71.8	80	65.3	0	1	315	0.00	29.808 
10:45	72.0	72.0	72.0	77	64.4	0	2	338	0.00	29.807 
10:50	72.0	72.0	72.0	78	64.8	0	1	315	0.00	29.807 
10:55	72.0	72.0	72.0	78	64.8	0	2	338	0.00	29.807 
11:00	72.3	72.3	72.3	77	64.7	0	2	338	0.00	29.805 
11:05	72.7	72.7	72.7	76	64.7	0	2	338	0.00	29.805 
11:10	72.5	72.5	72.5	76	64.5	0	2	338	0.00	29.805 
11:15	72.1	72.1	72.1	76	64.1	0	2	338	0.00	29.804 
11:20	72.1	72.1	72.1	77	64.5	0	1	338	0.00	29.804 
11:25	72.8	72.8	72.8	76	64.8	0	2	338	0.00	29.804 
11:30	73.5	73.5	73.5	74	64.7	1	4	315	0.00	29.795 
11:35	73.7	73.7	73.7	72	64.1	1	3	315	0.00	29.795 
11:40	73.7	73.7	73.7	72	64.1	0	1	270	0.00	29.795 
11:45	74.2	74.2	74.2	69	63.4	1	4	270	0.00	29.795 
11:50	73.9	73.9	73.9	69	63.1	2	6	270	0.00	29.795 
11:55	73.3	73.3	73.3	67	61.7	1	3	270	0.00	29.795 
12:00	73.0	73.0	73.0	66	61.0	2	4	270	0.00	29.796 
12:05	73.3	73.3	73.3	68	62.1	1	3	270	0.00	29.796 
12:10	74.4	74.4	74.4	66	62.3	1	5	270	0.00	29.796 
12:15	75.4	75.4	77.6	61	61.0	3	6	270	0.00	29.793 
12:20	76.0	76.0	78.0	58	60.1	2	6	270	0.00	29.793 
12:25	75.6	75.6	77.8	58	59.8	3	5	270	0.00	29.793 
12:30	75.6	75.6	77.8	58	59.8	2	5	270	0.00	29.790 
12:35	76.1	76.1	78.1	59	60.7	1	3	270	0.00	29.790 
12:40	76.0	76.0	78.1	49	55.4	3	7	270	0.00	29.790 
12:45	76.5	76.5	78.4	56	59.6	1	3	270	0.00	29.784 
12:50	77.2	77.2	78.9	57	60.8	2	4	270	0.00	29.784 
12:55	77.6	77.6	78.9	48	56.3	3	7	270	0.00	29.784 
13:00	77.9	77.9	79.3	52	58.8	2	5	270	0.00	29.780 
13:05	77.9	77.9	79.3	53	59.4	3	5	270	0.00	29.780 
13:10	76.8	76.8	78.5	52	57.8	3	5	270	0.00	29.780 
13:15	76.5	76.5	78.3	50	56.5	3	6	270	0.00	29.782 
13:20	76.7	76.7	78.4	49	56.1	2	4	270	0.00	29.782 
13:25	77.0	77.0	78.6	50	56.9	3	6	292	0.00	29.782 
13:30	77.2	77.2	78.7	48	56.0	3	7	292	0.00	29.780 
13:35	77.6	77.6	79.0	50	57.5	2	5	270	0.00	29.780 
13:40	78.1	78.1	79.2	47	56.2	2	6	270	0.00	29.780 
13:45	77.7	77.7	78.8	45	54.6	3	6	270	0.00	29.777 
13:50	77.2	77.2	78.4	42	52.3	3	6	270	0.00	29.777 
13:55	77.6	77.6	78.8	47	55.8	2	5	270	0.00	29.777 
14:00	76.8	76.8	78.5	49	56.2	3	6	270	0.00	29.780 
14:05	77.0	77.0	78.5	46	54.6	2	5	270	0.00	29.780 
14:10	77.2	77.2	78.5	45	54.2	1	4	270	0.00	29.780 
14:15	77.7	77.7	78.9	47	55.8	2	5	270	0.00	29.772 
14:20	78.3	78.3	79.2	45	55.2	2	5	292	0.00	29.772 
14:25	78.1	78.1	79.0	45	55.0	2	5	270	0.00	29.772 
14:30	77.2	77.2	78.6	47	55.4	3	5	270	0.00	29.774 
14:35	77.0	77.0	78.5	47	55.2	2	4	270	0.00	29.774 
14:40	76.3	76.3	78.2	48	55.1	2	5	270	0.00	29.774 
14:45	76.1	76.1	78.1	48	55.0	3	6	270	0.00	29.770 
14:50	75.6	75.6	77.9	49	55.1	2	5	270	0.00	29.770 
14:55	76.0	76.0	78.0	48	54.9	2	6	270	0.00	29.770 
15:00	76.5	76.5	78.3	47	54.7	2	6	270	0.00	29.768 
15:05	77.2	77.2	78.6	47	55.4	2	7	270	0.00	29.768 
15:10	77.9	77.9	79.0	46	55.4	1	4	248	0.00	29.768 
15:15	77.2	77.2	78.5	44	53.6	2	6	270	0.00	29.767 
15:20	76.7	76.7	78.3	45	53.7	4	7	270	0.00	29.767 
15:25	76.1	76.1	78.1	48	55.0	2	5	270	0.00	29.767 
15:30	76.3	76.3	78.2	50	56.3	3	7	292	0.00	29.766 
15:35	76.3	76.3	78.2	53	57.9	3	7	270	0.00	29.766 
15:40	76.3	76.3	78.2	51	56.8	4	6	270	0.00	29.766 
15:45	76.3	76.3	78.2	52	57.4	3	7	270	0.00	29.766 
15:50	77.0	77.0	78.6	51	57.5	2	5	270	0.00	29.766 
15:55	77.6	77.6	78.8	46	55.2	2	7	270	0.00	29.766 
16:00	77.2	77.2	78.6	47	55.4	3	6	292	0.00	29.764 
16:05	75.4	75.4	77.8	50	55.4	4	11	270	0.00	29.764 
16:10	73.0	73.0	73.0	52	54.3	4	9	292	0.00	29.764 
16:15	71.8	71.8	71.8	56	55.2	4	9	270	0.00	29.779 
16:20	72.0	72.0	72.0	58	56.4	3	6	292	0.00	29.779 
16:25	73.2	73.2	73.2	56	56.5	4	7	292	0.00	29.779 
16:30	73.2	73.2	73.2	58	57.5	3	9	315	0.00	29.780 
16:35	73.3	73.3	73.3	56	56.6	4	9	315	0.00	29.780 
16:40	73.2	73.2	73.2	57	57.0	4	9	315	0.00	29.780 
16:45	73.5	73.5	73.5	56	56.8	3	6	292	0.00	29.781 
16:50	73.7	73.7	73.7	54	56.0	4	9	292	0.00	29.781 
16:55	73.7	73.7	73.7	54	56.0	3	10	270	0.00	29.781 
17:00	73.5	73.5	73.5	53	55.3	4	11	270	0.00	29.779 
17:05	74.0	74.0	74.0	53	55.8	2	4	270	0.00	29.779 
17:10	74.4	74.4	74.4	52	55.6	3	5	292	0.00	29.779 
17:15	73.7	73.7	73.7	53	55.5	3	7	270	0.00	29.783 
17:20	72.5	72.5	72.5	56	55.9	5	10	292	0.00	29.783 
17:25	70.9	70.9	70.9	59	55.8	4	9	315	0.00	29.783 
17:30	69.8	69.8	69.8	61	55.7	4	10	292	0.00	29.791 
17:35	69.4	69.4	69.4	63	56.2	3	5	292	0.00	29.791 
17:40	68.4	68.4	68.4	69	57.8	4	7	270	0.01	29.791 
17:45	66.8	66.8	66.8	77	59.3	2	5	292	0.00	29.804 
17:50	66.1	66.1	66.1	80	59.7	1	3	270	0.00	29.804 
17:55	65.8	65.8	65.8	81	59.8	1	2	270	0.00	29.804 
18:00	66.3	66.3	66.3	83	61.0	1	2	270	0.00	29.801 
18:05	66.9	66.9	66.9	79	60.2	2	7	315	0.00	29.801 
18:10	67.6	67.6	67.6	75	59.4	3	7	338	0.00	29.801 
18:15	67.9	67.9	67.9	73	58.9	2	6	292	0.00	29.802 
18:20	68.4	68.4	68.4	72	59.0	1	4	315	0.00	29.802 
18:25	68.4	68.4	68.4	69	57.8	2	5	315	0.00	29.802 
18:30	67.9	67.9	67.9	67	56.5	4	10	292	0.00	29.805 
18:35	67.6	67.6	67.6	67	56.2	3	7	270	0.00	29.805 
18:40	67.3	67.3	67.3	68	56.4	2	5	292	0.00	29.805 
18:45	67.1	67.1	67.1	67	55.8	2	4	315	0.00	29.814 
18:50	66.9	66.9	66.9	65	54.7	2	6	270	0.00	29.814 
18:55	67.3	67.3	67.3	66	55.5	3	12	270	0.01	29.814 
19:00	66.8	66.8	66.8	68	55.9	3	7	315	0.00	29.819 
19:05	66.6	66.6	66.6	68	55.7	2	6	292	0.00	29.819 
19:10	66.0	66.0	66.0	68	55.1	3	7	292	0.00	29.819 
19:15	65.6	65.6	65.6	68	54.7	2	5	338	0.00	29.830 
19:20	65.5	65.5	65.5	68	54.7	1	4	338	0.00	29.830 
19:25	65.2	65.2	65.2	67	54.0	2	6	338	0.00	29.830 
19:30	65.0	65.0	65.0	67	53.8	2	7	270	0.00	29.834 
19:35	64.8	64.8	64.8	66	53.2	3	7	315	0.00	29.834 
19:40	64.7	64.7	64.7	66	53.1	2	4	292	0.00	29.834 
19:45	64.5	64.5	64.5	67	53.3	3	5	315	0.00	29.839 
19:50	64.3	64.3	64.3	67	53.1	2	5	292	0.00	29.839 
19:55	64.3	64.3	64.3	68	53.5	2	6	315	0.00	29.839 
20:00	64.5	64.5	64.5	67	53.3	2	4	270	0.00	29.850 
20:05	64.3	64.3	64.3	67	53.1	2	6	270	0.00	29.850 
20:10	64.3	64.3	64.3	67	53.1	1	2	315	0.00	29.850 
20:15	64.3	64.3	64.3	68	53.5	1	4	315	0.00	29.852 
20:20	64.2	64.2	64.2	67	53.0	1	5	292	0.00	29.852 
20:25	64.0	64.0	64.0	68	53.2	1	3	292	0.00	29.852 
20:30	63.9	63.9	63.9	68	53.1	1	3	292	0.00	29.853 
20:35	63.7	63.7	63.7	69	53.3	1	4	292	0.00	29.853 
20:40	63.4	63.4	63.4	69	53.0	1	5	315	0.00	29.853 
20:45	63.2	63.2	63.2	69	52.9	1	4	338	0.00	29.855 
20:50	63.2	63.2	63.2	69	52.9	1	3	338	0.00	29.855 
20:55	62.9	62.9	62.9	69	52.6	1	3	292	0.00	29.855 
21:00	62.7	62.7	62.7	69	52.4	1	3	315	0.00	29.860 
21:05	62.4	62.4	62.4	69	52.1	0	2	315	0.00	29.860 
21:10	62.3	62.3	62.3	70	52.4	0	1	315	0.00	29.860 
21:15	62.0	62.0	62.0	71	52.5	0	1	315	0.00	29.866 
21:20	61.6	61.6	61.6	72	52.5	0	0	---	0.00	29.866 
21:25	61.3	61.3	61.3	73	52.6	0	2	315	0.00	29.866 
21:30	61.2	61.2	61.2	73	52.5	0	2	315	0.00	29.870 
21:35	61.0	61.0	61.0	73	52.3	0	1	315	0.00	29.870 
21:40	60.7	60.7	60.7	74	52.4	0	1	315	0.00	29.870 
21:45	60.5	60.5	60.5	74	52.2	0	1	315	0.00	29.878 
21:50	60.5	60.5	60.5	74	52.2	0	2	315	0.00	29.878 
21:55	60.4	60.4	60.4	73	51.7	0	2	315	0.00	29.878 
22:00	60.4	60.4	60.4	73	51.7	0	1	315	0.00	29.886 
22:05	60.2	60.2	60.2	72	51.1	0	2	315	0.00	29.886 
22:10	60.1	60.1	60.1	71	50.7	0	1	315	0.00	29.886 
22:15	60.1	60.1	60.1	71	50.7	0	3	270	0.00	29.883 
22:20	59.9	59.9	59.9	71	50.5	0	1	270	0.00	29.883 
22:25	59.9	59.9	59.9	71	50.5	0	1	270	0.00	29.883 
22:30	59.9	59.9	59.9	71	50.5	0	1	270	0.00	29.884 
22:35	59.8	59.8	59.8	72	50.8	0	1	270	0.00	29.884 
22:40	59.6	59.6	59.6	72	50.6	0	1	270	0.00	29.884 
22:45	59.5	59.5	59.5	72	50.5	0	1	270	0.00	29.887 
22:50	59.3	59.3	59.3	73	50.6	0	0	---	0.00	29.887 
22:55	59.2	59.2	59.2	73	50.5	0	0	---	0.00	29.887 
23:00	59.0	59.0	59.0	73	50.4	0	0	---	0.00	29.888 
23:05	58.7	58.7	58.7	74	50.4	0	0	---	0.00	29.888 
23:10	58.6	58.6	58.6	74	50.3	0	0	---	0.00	29.888 
23:15	58.4	58.4	58.4	75	50.5	0	1	270	0.00	29.896 
23:20	58.3	58.3	58.3	75	50.4	0	1	270	0.00	29.896 
23:25	58.3	58.3	58.3	76	50.8	0	0	---	0.00	29.896 
23:30	58.0	58.0	58.0	76	50.5	0	0	---	0.00	29.891 
23:35	57.8	57.8	57.8	77	50.6	0	1	270	0.00	29.891 
23:40	57.6	57.6	57.6	77	50.4	0	0	---	0.00	29.891 
23:45	57.5	57.5	57.5	77	50.3	0	0	---	0.00	29.894 
23:50	57.3	57.3	57.3	78	50.5	0	0	---	0.00	29.894 
23:55	57.0	57.0	57.0	79	50.5	0	0	---	0.00	29.894 

CoCoRaHS
IN-AL-39
A2 Web Hosting
Creative Commons License
GoDaddy
search engine by freefind advanced

loaded 2018-11-12 14:43:42 • last modified 2010-11-18 10:43:29
Privacy PolicyDisclaimer
• wx.awcolley.com is powered by PmWiki v.2002016 •
• all content (unless otherwise noted) © 2018 A W Colley